Soleil Laural Canyon Historical Data
Daily Summary for February 14, 2018 Units:  Metric    English   Both
Daily Weekly Monthly Yearly Custom
  High: Low: Average:
Temperature: 9.3 °C -5.1 °C 1.7 °C
Dew Point: 2.7 °C -7 °C -1.4 °C
Humidity: 91% 62% 80%
Wind Speed: 24.9km/h 0km/h 10.9km/h
Wind Gust: 35.2km/h - -
Wind- - SSW
Pressure: 1018.5 hPa 1005 hPa -
Precipitation: 0 mm    
Historical Graphs
 
 
Tabular Data for February 14, 2018
Time Temperature Dew Point Pressure Wind Wind Speed Wind Gust Humidity Rainfall Rate (Hourly) solar
00:03 -4.5 °C -6.9 °C 1018.5 hPa South 2.3 km/h 2.3 km/h 83% 0 mm 0.0 W/m2
00:09 -4.6 °C -7 °C 1018.5 hPa South 2.1 km/h 2.1 km/h 83% 0 mm 0.0 W/m2
00:14 -4.7 °C -6.9 °C 1018.5 hPa South 0.2 km/h 1.9 km/h 84% 0 mm 0.0 W/m2
00:19 -4.7 °C -7 °C 1018.5 hPa South 1.3 km/h 1.9 km/h 84% 0 mm 0.0 W/m2
00:24 -4.7 °C -6.8 °C 1018.5 hPa South 2.3 km/h 2.3 km/h 85% 0 mm 0.0 W/m2
00:29 -4.8 °C -6.9 °C 1018.5 hPa South 1 km/h 1.9 km/h 85% 0 mm 0.0 W/m2
00:34 -4.8 °C -6.8 °C 1018.2 hPa South 1.1 km/h 1.9 km/h 86% 0 mm 0.0 W/m2
00:39 -4.8 °C -6.8 °C 1018.2 hPa South 1.4 km/h 1.9 km/h 86% 0 mm 0.0 W/m2
00:44 -4.8 °C -6.8 °C 1018.2 hPa South 0.5 km/h 3.7 km/h 86% 0 mm 0.0 W/m2
00:50 -4.8 °C -6.8 °C 1018.2 hPa South 0.8 km/h 1.9 km/h 86% 0 mm 0.0 W/m2
00:55 -4.8 °C -6.8 °C 1018.2 hPa South 1.6 km/h 1.9 km/h 86% 0 mm 0.0 W/m2
01:00 -4.8 °C -6.8 °C 1017.8 hPa South 1.9 km/h 3.7 km/h 86% 0 mm 0.0 W/m2
01:05 -4.9 °C -6.9 °C 1017.8 hPa South 0.2 km/h 1.9 km/h 86% 0 mm 0.0 W/m2
01:10 -4.9 °C -6.9 °C 1017.8 hPa South 2.3 km/h 3.7 km/h 86% 0 mm 0.0 W/m2
01:15 -4.9 °C -6.9 °C 1017.8 hPa South 1.4 km/h 3.7 km/h 86% 0 mm 0.0 W/m2
01:20 -5 °C -6.8 °C 1017.8 hPa South 0.6 km/h 1.9 km/h 87% 0 mm 0.0 W/m2
01:25 -5 °C -6.8 °C 1017.8 hPa South 1.3 km/h 1.9 km/h 87% 0 mm 0.0 W/m2
01:30 -4.9 °C -6.6 °C 1017.5 hPa SSW 5.8 km/h 11.1 km/h 88% 0 mm 0.0 W/m2
01:35 -4.7 °C -6.3 °C 1017.5 hPa SSW 5.3 km/h 7.4 km/h 88% 0 mm 0.0 W/m2
01:40 -4.4 °C -6.1 °C 1017.5 hPa SSW 1.3 km/h 5.6 km/h 88% 0 mm 0.0 W/m2
01:45 -4.3 °C -6 °C 1017.5 hPa SSW 3.9 km/h 3.9 km/h 88% 0 mm 0.0 W/m2
01:50 -4.3 °C -6 °C 1017.5 hPa SSW 1.3 km/h 3.9 km/h 88% 0 mm 0.0 W/m2
01:55 -4.3 °C -6 °C 1017.5 hPa SSW 0.3 km/h 1.9 km/h 88% 0 mm 0.0 W/m2
02:00 -4.5 °C -6.3 °C 1017.5 hPa SSW 2.3 km/h 3.9 km/h 87% 0 mm 0.0 W/m2
02:05 -4.6 °C -6.4 °C 1017.5 hPa SSW 3.7 km/h 3.9 km/h 87% 0 mm 0.0 W/m2
02:10 -4.3 °C -6 °C 1017.5 hPa West 5.3 km/h 7.4 km/h 88% 0 mm 0.0 W/m2
02:15 -4.2 °C -5.9 °C 1017.2 hPa North 2.1 km/h 7.4 km/h 88% 0 mm 0.0 W/m2
02:20 -3.9 °C -5.7 °C 1017.2 hPa SW 11.6 km/h 11.6 km/h 88% 0 mm 0.0 W/m2
02:26 -3 °C -4.8 °C 1017.2 hPa SSW 14.8 km/h 14.8 km/h 87% 0 mm 0.0 W/m2
02:31 -2.4 °C -4.6 °C 1016.8 hPa SW 15.1 km/h 15.1 km/h 85% 0 mm 0.0 W/m2
02:36 -2.4 °C -4.7 °C 1016.8 hPa SW 17.4 km/h 19.3 km/h 84% 0 mm 0.0 W/m2
02:41 -2.5 °C -4.8 °C 1016.5 hPa SSW 13 km/h 13 km/h 84% 0 mm 0.0 W/m2
02:46 -2.6 °C -4.9 °C 1016.5 hPa SSW 13.2 km/h 16.7 km/h 84% 0 mm 0.0 W/m2
02:51 -2.5 °C -4.8 °C 1016.5 hPa SSW 14 km/h 14.8 km/h 84% 0 mm 0.0 W/m2
02:56 -2.3 °C -4.7 °C 1016.1 hPa SSW 16.4 km/h 18.5 km/h 84% 0 mm 0.0 W/m2
03:01 -2.5 °C -5 °C 1016.1 hPa SSW 14.8 km/h 15.4 km/h 83% 0 mm 0.0 W/m2
03:06 -2.4 °C -4.9 °C 1016.1 hPa SW 15.9 km/h 16.7 km/h 83% 0 mm 0.0 W/m2
03:11 -2.4 °C -4.9 °C 1016.1 hPa SSW 16.9 km/h 16.9 km/h 83% 0 mm 0.0 W/m2
03:16 -2.4 °C -4.9 °C 1015.8 hPa SSW 8.7 km/h 13 km/h 83% 0 mm 0.0 W/m2
03:21 -2.5 °C -5 °C 1016.1 hPa SSW 6.8 km/h 7.4 km/h 83% 0 mm 0.0 W/m2
03:26 -2.6 °C -5.1 °C 1016.1 hPa SSW 6.1 km/h 7.7 km/h 83% 0 mm 0.0 W/m2
03:32 -2.6 °C -5.1 °C 1015.8 hPa SSW 11.3 km/h 12.9 km/h 83% 0 mm 0.0 W/m2
03:37 -2.6 °C -5.1 °C 1015.8 hPa SSW 9.7 km/h 11.3 km/h 83% 0 mm 0.0 W/m2
03:42 -2.7 °C -5.2 °C 1015.8 hPa SW 5.8 km/h 9.3 km/h 83% 0 mm 0.0 W/m2
03:47 -2.6 °C -5.1 °C 1015.8 hPa SSW 10.6 km/h 11.1 km/h 83% 0 mm 0.0 W/m2
03:52 -2.6 °C -5.1 °C 1015.8 hPa SSW 11.6 km/h 11.6 km/h 83% 0 mm 0.0 W/m2
03:57 -2.6 °C -5.1 °C 1015.8 hPa SSW 8.5 km/h 9.3 km/h 83% 0 mm 0.0 W/m2
04:02 -2.6 °C -5.1 °C 1015.8 hPa SSW 10.3 km/h 13 km/h 83% 0 mm 0.0 W/m2
04:07 -2.7 °C -5.2 °C 1015.8 hPa SSW 9.5 km/h 13 km/h 83% 0 mm 0.0 W/m2
04:12 -2.7 °C -5.2 °C 1015.8 hPa SSW 10.1 km/h 11.6 km/h 83% 0 mm 0.0 W/m2
04:17 -2.7 °C -5.2 °C 1015.8 hPa South 7.1 km/h 13 km/h 83% 0 mm 0.0 W/m2
04:22 -2.8 °C -5.2 °C 1015.8 hPa SSW 6.4 km/h 7.7 km/h 84% 0 mm 0.0 W/m2
04:27 -2.9 °C -5.3 °C 1015.8 hPa SSW 1.1 km/h 3.7 km/h 84% 0 mm 0.0 W/m2
04:32 -3.1 °C -5.4 °C 1015.8 hPa SSW 3.1 km/h 3.9 km/h 84% 0 mm 0.0 W/m2
04:37 -3.2 °C -5.6 °C 1015.8 hPa SSW 2.6 km/h 3.9 km/h 84% 0 mm 0.0 W/m2
04:42 -3.3 °C -5.7 °C 1015.8 hPa SE 2.6 km/h 3.9 km/h 84% 0 mm 0.0 W/m2
04:47 -3.4 °C -5.6 °C 1015.8 hPa South 3.4 km/h 3.9 km/h 85% 0 mm 0.0 W/m2
04:53 -3.6 °C -5.7 °C 1015.8 hPa Calm   1.9 km/h 85% 0 mm 0.0 W/m2
04:58 -3.5 °C -5.7 °C 1015.8 hPa SSE 0.2 km/h 1.9 km/h 85% 0 mm 0.0 W/m2
05:03 -3.7 °C -5.8 °C 1015.8 hPa SSE 1.8 km/h 1.9 km/h 85% 0 mm 0.0 W/m2
05:08 -3.8 °C -5.9 °C 1015.8 hPa South 2.6 km/h 3.7 km/h 85% 0 mm 0.0 W/m2
05:13 -4.1 °C -6.1 °C 1015.5 hPa SSE 4.5 km/h 7.4 km/h 86% 0 mm 0.0 W/m2
05:18 -4.5 °C -6.5 °C 1015.5 hPa ENE 6.8 km/h 7.7 km/h 86% 0 mm 0.0 W/m2
05:23 -4.6 °C -6.4 °C 1015.5 hPa ENE 2.7 km/h 3.9 km/h 87% 0 mm 0.0 W/m2
05:28 -4.7 °C -6.6 °C 1015.5 hPa ENE 2.6 km/h 3.7 km/h 87% 0 mm 0.0 W/m2
05:33 -4.9 °C -6.8 °C 1015.5 hPa ENE 3.9 km/h 3.9 km/h 87% 0 mm 0.0 W/m2
05:38 -5.1 °C -6.8 °C 1015.1 hPa NE 2.4 km/h 3.7 km/h 88% 0 mm 0.0 W/m2
05:43 -5.1 °C -6.8 °C 1015.5 hPa NE 0.3 km/h 1.9 km/h 88% 0 mm 0.0 W/m2
05:48 -5.1 °C -6.6 °C 1015.1 hPa Calm   1.9 km/h 89% 0 mm 0.0 W/m2
05:53 -5.1 °C -6.4 °C 1015.1 hPa NE 1.9 km/h 3.9 km/h 90% 0 mm 0.0 W/m2
05:58 -5 °C -6.4 °C 1015.1 hPa Calm   1.9 km/h 90% 0 mm 0.0 W/m2
06:03 -4.9 °C -6.3 °C 1015.1 hPa East 2.6 km/h 3.7 km/h 90% 0 mm 0.0 W/m2
06:09 -4.9 °C -6.3 °C 1015.1 hPa East 2.3 km/h 2.3 km/h 90% 0 mm 0.0 W/m2
06:14 -5 °C -6.4 °C 1015.1 hPa East 0.8 km/h 1.9 km/h 90% 0 mm 0.0 W/m2
06:19 -4.9 °C -6.3 °C 1015.1 hPa SSE 2.6 km/h 3.9 km/h 90% 0 mm 0.0 W/m2
06:24 -4.7 °C -6.1 °C 1015.1 hPa SSE 4.7 km/h 7.7 km/h 90% 0 mm 0.0 W/m2
06:29 -4.5 °C -6.1 °C 1015.1 hPa South 5 km/h 7.7 km/h 89% 0 mm 0.0 W/m2
06:34 -4.4 °C -5.9 °C 1015.1 hPa SSE 6.6 km/h 9.3 km/h 89% 0 mm 0.0 W/m2
06:39 -4.4 °C -5.9 °C 1015.1 hPa South 5.3 km/h 9.7 km/h 89% 0 mm 0.0 W/m2
06:44 -4.3 °C -5.9 °C 1015.1 hPa South 5.3 km/h 9.3 km/h 89% 0 mm 0.0 W/m2
06:49 -3.9 °C -5.7 °C 1015.1 hPa South 5.1 km/h 7.4 km/h 88% 0 mm 0.0 W/m2
06:54 -3.9 °C -5.7 °C 1015.1 hPa South 3.2 km/h 7.4 km/h 88% 0 mm 0.0 W/m2
06:59 -4.1 °C -5.7 °C 1015.1 hPa South 4.2 km/h 4.2 km/h 88% 0 mm 0.0 W/m2
07:04 -4 °C -5.7 °C 1014.8 hPa SSW 8 km/h 11.1 km/h 88% 0 mm 5.0 W/m2
07:09 -4.1 °C -5.7 °C 1014.8 hPa SSW 7.1 km/h 7.7 km/h 88% 0 mm 9.0 W/m2
07:14 -3.9 °C -5.7 °C 1014.8 hPa SSW 8 km/h 11.1 km/h 88% 0 mm 11.0 W/m2
07:19 -4 °C -5.7 °C 1015.1 hPa SSW 4.7 km/h 7.4 km/h 88% 0 mm 14.0 W/m2
07:24 -3.9 °C -5.7 °C 1015.1 hPa SSW 6 km/h 7.7 km/h 88% 0 mm 18.0 W/m2
07:29 -3.9 °C -5.6 °C 1015.1 hPa South 3.2 km/h 3.9 km/h 88% 0 mm 19.0 W/m2
07:34 -3.8 °C -5.6 °C 1015.1 hPa South 4.5 km/h 4.5 km/h 88% 0 mm 25.0 W/m2
07:39 -3.8 °C -5.6 °C 1015.1 hPa South 2.1 km/h 3.7 km/h 88% 0 mm 26.0 W/m2
07:44 -3.8 °C -5.6 °C 1015.1 hPa South 3.9 km/h 7.4 km/h 88% 0 mm 32.0 W/m2
07:49 -3.7 °C -5.4 °C 1015.1 hPa South 6.9 km/h 11.1 km/h 88% 0 mm 47.0 W/m2
07:54 -3.6 °C -5.3 °C 1015.1 hPa South 10 km/h 10 km/h 88% 0 mm 54.0 W/m2
08:00 -3.2 °C -5 °C 1014.8 hPa South 10.9 km/h 14.8 km/h 87% 0 mm 67.0 W/m2
08:05 -2.9 °C -4.8 °C 1014.8 hPa South 9.3 km/h 13 km/h 87% 0 mm 104.0 W/m2
08:10 -2.8 °C -4.7 °C 1014.8 hPa SSW 12.7 km/h 16.7 km/h 87% 0 mm 111.0 W/m2
08:15 -2.6 °C -4.6 °C 1014.8 hPa South 14 km/h 14.8 km/h 86% 0 mm 90.0 W/m2
08:20 -2.4 °C -4.4 °C 1014.8 hPa SSW 16.6 km/h 16.7 km/h 86% 0 mm 121.0 W/m2
08:25 -2.2 °C -4.4 °C 1014.8 hPa SSW 17.7 km/h 20.4 km/h 85% 0 mm 134.0 W/m2
08:30 -2.1 °C -4.3 °C 1014.8 hPa South 6.6 km/h 9.3 km/h 85% 0 mm 190.0 W/m2
08:35 -1.9 °C -4.1 °C 1014.8 hPa South 8.5 km/h 14.8 km/h 85% 0 mm 199.0 W/m2
08:40 -1.7 °C -3.9 °C 1014.8 hPa SSW 10.3 km/h 11.1 km/h 85% 0 mm 241.0 W/m2
08:45 -1.5 °C -3.8 °C 1014.8 hPa SSW 12.9 km/h 16.7 km/h 84% 0 mm 239.0 W/m2
08:50 -1.3 °C -3.7 °C 1015.1 hPa SSW 9.3 km/h 9.3 km/h 84% 0 mm 267.0 W/m2
08:55 -0.9 °C -3.4 °C 1014.8 hPa SSW 7.6 km/h 16.7 km/h 83% 0 mm 283.0 W/m2
09:01 -0.7 °C -3.2 °C 1014.8 hPa SSW 15.9 km/h 18.5 km/h 83% 0 mm 299.0 W/m2
09:06 -0.4 °C -3.1 °C 1014.8 hPa SSW 7.6 km/h 17.4 km/h 82% 0 mm 313.0 W/m2
09:11 -0.2 °C -2.9 °C 1014.8 hPa SSW 10.5 km/h 20.4 km/h 82% 0 mm 327.0 W/m2
09:16 -0.1 °C -2.9 °C 1014.8 hPa SSW 11.6 km/h 14.8 km/h 81% 0 mm 341.0 W/m2
09:21 0.1 °C -2.8 °C 1014.8 hPa South 15.6 km/h 24.1 km/h 81% 0 mm 357.0 W/m2
09:26 0.3 °C -2.6 °C 1014.8 hPa SSW 17.2 km/h 20.4 km/h 81% 0 mm 367.0 W/m2
09:31 0.5 °C -2.4 °C 1014.8 hPa South 10.1 km/h 14.8 km/h 81% 0 mm 381.0 W/m2
09:36 0.7 °C -2.4 °C 1014.4 hPa SSW 8.7 km/h 18.5 km/h 80% 0 mm 394.0 W/m2
09:41 0.9 °C -2.2 °C 1014.4 hPa SSW 10.3 km/h 11.6 km/h 80% 0 mm 404.0 W/m2
09:46 1 °C -2.1 °C 1014.4 hPa South 11.9 km/h 15.4 km/h 80% 0 mm 415.0 W/m2
09:51 1 °C -2.1 °C 1014.4 hPa South 14.8 km/h 18.5 km/h 80% 0 mm 427.0 W/m2
09:56 0.9 °C -2.3 °C 1014.4 hPa South 15.1 km/h 18.5 km/h 79% 0 mm 439.0 W/m2
10:02 1.3 °C -1.9 °C 1014.1 hPa SSW 14.3 km/h 18.5 km/h 79% 0 mm 450.0 W/m2
10:07 1.3 °C -2.1 °C 1014.1 hPa South 24.1 km/h 24.1 km/h 78% 0 mm 461.0 W/m2
10:12 1.6 °C -1.7 °C 1014.1 hPa SSW 14.5 km/h 20.4 km/h 79% 0 mm 469.0 W/m2
10:17 1.7 °C -1.8 °C 1014.1 hPa SSW 19.3 km/h 25.7 km/h 78% 0 mm 480.0 W/m2
10:22 1.8 °C -1.7 °C 1013.8 hPa South 22.5 km/h 32.2 km/h 78% 0 mm 489.0 W/m2
10:27 1.9 °C -1.7 °C 1013.8 hPa South 14.5 km/h 27.4 km/h 77% 0 mm 499.0 W/m2
10:32 2.3 °C -1.1 °C 1013.4 hPa SSW 9.7 km/h 12.9 km/h 78% 0 mm 508.0 W/m2
10:37 2.4 °C -1.2 °C 1013.8 hPa South 12.7 km/h 17.4 km/h 77% 0 mm 513.0 W/m2
10:42 2.6 °C -1.2 °C 1013.8 hPa South 12.9 km/h 24.1 km/h 76% 0 mm 522.0 W/m2
10:47 2.8 °C -1.1 °C 1013.4 hPa South 14.5 km/h 20.9 km/h 76% 0 mm 533.0 W/m2
10:52 2.9 °C -0.9 °C 1013.1 hPa South 11.3 km/h 24.1 km/h 76% 0 mm 538.0 W/m2
10:57 3 °C -1 °C 1013.1 hPa South 16.1 km/h 20.9 km/h 75% 0 mm 547.0 W/m2
11:02 3.3 °C -0.7 °C 1013.1 hPa SSW 16.3 km/h 21.2 km/h 75% 0 mm 554.0 W/m2
11:07 3.6 °C -0.7 °C 1012.8 hPa SSW 19.6 km/h 27 km/h 74% 0 mm 559.0 W/m2
11:12 3.8 °C -0.6 °C 1012.8 hPa SSW 17.1 km/h 17.4 km/h 73% 0 mm 564.0 W/m2
11:17 3.9 °C -0.4 °C 1012.8 hPa SSW 23.7 km/h 27.8 km/h 73% 0 mm 570.0 W/m2
11:22 4.1 °C -0.3 °C 1012.4 hPa South 20.3 km/h 25.9 km/h 73% 0 mm 575.0 W/m2
11:27 4.4 °C -0.2 °C 1012.4 hPa South 16.7 km/h 24.1 km/h 72% 0 mm 578.0 W/m2
11:32 4.6 °C -0.1 °C 1012.1 hPa South 13.8 km/h 16.7 km/h 72% 0 mm 582.0 W/m2
11:37 4.8 °C 0 °C 1012.1 hPa South 12.6 km/h 15.4 km/h 71% 0 mm 587.0 W/m2
11:42 5.1 °C 0.2 °C 1011.7 hPa SSE 12.6 km/h 16.7 km/h 71% 0 mm 592.0 W/m2
11:48 5.2 °C 0.1 °C 1011.7 hPa SSW 16.7 km/h 16.7 km/h 70% 0 mm 596.0 W/m2
11:53 5.3 °C 0.1 °C 1011.7 hPa South 16.9 km/h 18.5 km/h 69% 0 mm 598.0 W/m2
11:58 5.6 °C 0.3 °C 1011.4 hPa South 10.6 km/h 14.8 km/h 69% 0 mm 599.0 W/m2
12:03 5.7 °C 0.2 °C 1011.4 hPa SSW 23.8 km/h 25.9 km/h 68% 0 mm 601.0 W/m2
12:08 5.9 °C 0.5 °C 1011.4 hPa SSW 11.4 km/h 13 km/h 68% 0 mm 605.0 W/m2
12:13 6.5 °C 0.6 °C 1011.1 hPa South 10.6 km/h 13 km/h 66% 0 mm 605.0 W/m2
12:18 6.4 °C 0.5 °C 1011.1 hPa SW 11.6 km/h 19.3 km/h 66% 0 mm 603.0 W/m2
12:23 6.4 °C 0.3 °C 1011.1 hPa SSW 13.8 km/h 16.7 km/h 65% 0 mm 603.0 W/m2
12:28 6.5 °C 0.4 °C 1010.7 hPa SW 16.7 km/h 18.5 km/h 65% 0 mm 599.0 W/m2
12:33 6.7 °C 0.6 °C 1010.7 hPa South 6.1 km/h 11.1 km/h 65% 0 mm 599.0 W/m2
12:38 6.9 °C 0.8 °C 1010.4 hPa SSW 12.7 km/h 14.8 km/h 65% 0 mm 598.0 W/m2
12:44 7 °C 0.7 °C 1010.4 hPa South 16.7 km/h 16.7 km/h 64% 0 mm 596.0 W/m2
12:49 6.8 °C 0.4 °C 1010.4 hPa South 13.2 km/h 20.4 km/h 64% 0 mm 592.0 W/m2
12:54 7.1 °C 0.7 °C 1010.4 hPa South 18.5 km/h 18.5 km/h 64% 0 mm 589.0 W/m2
12:59 7.3 °C 0.7 °C 1010.4 hPa South 17.1 km/h 17.1 km/h 63% 0 mm 585.0 W/m2
13:04 7.5 °C 0.9 °C 1010 hPa South 13.8 km/h 18.5 km/h 63% 0 mm 582.0 W/m2
13:09 7.5 °C 0.9 °C 1010 hPa SSW 14.2 km/h 18.5 km/h 63% 0 mm 578.0 W/m2
13:14 7.6 °C 0.8 °C 1010 hPa SSW 18.5 km/h 23.2 km/h 62% 0 mm 573.0 W/m2
13:19 7.6 °C 0.7 °C 1009.7 hPa SW 23 km/h 27.8 km/h 62% 0 mm 568.0 W/m2
13:24 7.7 °C 0.8 °C 1009.7 hPa SSW 19.2 km/h 20.4 km/h 62% 0 mm 564.0 W/m2
13:29 7.8 °C 1 °C 1009.7 hPa SSW 20.1 km/h 21.2 km/h 62% 0 mm 557.0 W/m2
13:34 8 °C 1.2 °C 1009.4 hPa SSW 24.5 km/h 24.5 km/h 62% 0 mm 552.0 W/m2
13:39 8 °C 1.4 °C 1009.4 hPa South 12.6 km/h 17.4 km/h 63% 0 mm 545.0 W/m2
13:44 8.1 °C 1.2 °C 1009.4 hPa South 12.1 km/h 13.5 km/h 62% 0 mm 538.0 W/m2
13:49 8.2 °C 1.4 °C 1009 hPa SSW 13.2 km/h 19.3 km/h 62% 0 mm 531.0 W/m2
13:54 8.2 °C 1.6 °C 1009 hPa South 16.4 km/h 20.4 km/h 63% 0 mm 524.0 W/m2
13:59 8.2 °C 1.6 °C 1009 hPa SW 17.2 km/h 25.9 km/h 63% 0 mm 515.0 W/m2
14:05 8.2 °C 1.6 °C 1008.7 hPa SSW 14.8 km/h 29.6 km/h 63% 0 mm 508.0 W/m2
14:10 8.4 °C 1.5 °C 1008.7 hPa SSW 17.1 km/h 19.3 km/h 62% 0 mm 499.0 W/m2
14:15 8.4 °C 1.8 °C 1008.7 hPa SW 11.7 km/h 15.4 km/h 63% 0 mm 489.0 W/m2
14:20 8.4 °C 1.8 °C 1008.7 hPa SW 12.4 km/h 14.8 km/h 63% 0 mm 478.0 W/m2
14:25 8.5 °C 1.8 °C 1008.4 hPa SSW 10.5 km/h 15.4 km/h 63% 0 mm 469.0 W/m2
14:30 8.4 °C 1.8 °C 1008.4 hPa SSW 18 km/h 19.3 km/h 63% 0 mm 459.0 W/m2
14:35 8.4 °C 1.8 °C 1008.4 hPa SSW 13.4 km/h 18.5 km/h 63% 0 mm 448.0 W/m2
14:40 8.4 °C 2 °C 1008.4 hPa SW 13.2 km/h 18.5 km/h 64% 0 mm 438.0 W/m2
14:45 8.5 °C 2.1 °C 1008 hPa WSW 14 km/h 18.5 km/h 64% 0 mm 425.0 W/m2
14:50 8.4 °C 2 °C 1007.7 hPa South 12.6 km/h 20.4 km/h 64% 0 mm 413.0 W/m2
14:55 8.7 °C 2.2 °C 1007.7 hPa SSW 18.3 km/h 25.9 km/h 64% 0 mm 403.0 W/m2
15:01 8.7 °C 2.3 °C 1007.7 hPa SSW 19.3 km/h 25.1 km/h 64% 0 mm 390.0 W/m2
15:06 8.8 °C 2.3 °C 1007.7 hPa SSW 14.6 km/h 23.2 km/h 64% 0 mm 378.0 W/m2
15:11 8.8 °C 2.4 °C 1007.7 hPa SSW 11.9 km/h 14.8 km/h 64% 0 mm 364.0 W/m2
15:16 9.3 °C 2.6 °C 1007.7 hPa South 8.9 km/h 11.1 km/h 63% 0 mm 355.0 W/m2
15:21 9.1 °C 2.4 °C 1007.7 hPa South 20 km/h 25.9 km/h 63% 0 mm 341.0 W/m2
15:26 9.1 °C 2.7 °C 1007.3 hPa SSW 13.2 km/h 31.5 km/h 64% 0 mm 329.0 W/m2
15:31 9.1 °C 2.6 °C 1007.7 hPa South 12.2 km/h 13 km/h 64% 0 mm 315.0 W/m2
15:36 9.2 °C 2.7 °C 1007.7 hPa SSW 8.5 km/h 11.6 km/h 64% 0 mm 297.0 W/m2
15:41 8.8 °C 2.6 °C 1007.3 hPa South 9 km/h 11.1 km/h 65% 0 mm 281.0 W/m2
15:47 8.7 °C 2.7 °C 1007.3 hPa SSW 12.4 km/h 15.4 km/h 66% 0 mm 262.0 W/m2
15:52 8.6 °C 2.6 °C 1007.3 hPa SSW 12.9 km/h 25.7 km/h 66% 0 mm 244.0 W/m2
15:57 8.6 °C 2.6 °C 1007.3 hPa SSW 3.2 km/h 19.3 km/h 66% 0 mm 220.0 W/m2
16:02 8.6 °C 2.6 °C 1007 hPa SSW 10.3 km/h 13 km/h 66% 0 mm 155.0 W/m2
16:07 8.3 °C 2.3 °C 1007 hPa SSW 10 km/h 11.6 km/h 66% 0 mm 128.0 W/m2
16:12 8.2 °C 2.4 °C 1007 hPa SSW 10.3 km/h 15.4 km/h 67% 0 mm 134.0 W/m2
16:17 8.1 °C 2.5 °C 1007 hPa South 8 km/h 9.7 km/h 68% 0 mm 98.0 W/m2
16:22 8 °C 2.4 °C 1007 hPa South 16.4 km/h 18.5 km/h 68% 0 mm 86.0 W/m2
16:27 7.8 °C 2.2 °C 1006.7 hPa South 15.6 km/h 19.3 km/h 68% 0 mm 69.0 W/m2
16:32 7.6 °C 2.2 °C 1006.7 hPa South 11.6 km/h 14.8 km/h 69% 0 mm 51.0 W/m2
16:37 7.4 °C 2.1 °C 1006.7 hPa SSW 15.9 km/h 20.4 km/h 69% 0 mm 51.0 W/m2
16:42 7.3 °C 2.2 °C 1006.7 hPa SSW 15.6 km/h 18.5 km/h 70% 0 mm 47.0 W/m2
16:47 7.1 °C 1.9 °C 1006.3 hPa SSE 10 km/h 13 km/h 70% 0 mm 40.0 W/m2
16:53 6.9 °C 2 °C 1006.3 hPa South 12.9 km/h 13 km/h 71% 0 mm 26.0 W/m2
16:58 6.8 °C 2.1 °C 1006.3 hPa SSW 11.9 km/h 14.8 km/h 72% 0 mm 21.0 W/m2
17:03 6.6 °C 1.9 °C 1006.3 hPa SSE 8.4 km/h 18.5 km/h 72% 0 mm 11.0 W/m2
17:08 6.3 °C 1.8 °C 1006 hPa SE 14.8 km/h 19.3 km/h 73% 0 mm 9.0 W/m2
17:13 6.2 °C 1.7 °C 1006.3 hPa South 12.9 km/h 24.1 km/h 73% 0 mm 5.0 W/m2
17:18 6 °C 1.7 °C 1006.3 hPa SSE 13.5 km/h 17.4 km/h 74% 0 mm 0.0 W/m2
17:23 5.9 °C 1.8 °C 1006.3 hPa South 15.4 km/h 18.5 km/h 75% 0 mm 0.0 W/m2
17:28 5.7 °C 1.6 °C 1006.3 hPa South 8.7 km/h 13 km/h 75% 0 mm 0.0 W/m2
17:33 5.7 °C 1.6 °C 1006.3 hPa South 14.8 km/h 14.8 km/h 75% 0 mm 0.0 W/m2
17:39 5.5 °C 1.6 °C 1006 hPa South 11.1 km/h 16.7 km/h 76% 0 mm 0.0 W/m2
17:44 5.4 °C 1.5 °C 1006 hPa SSW 7.7 km/h 11.6 km/h 76% 0 mm 0.0 W/m2
17:49 5.2 °C 1.5 °C 1006 hPa South 12.6 km/h 18.5 km/h 77% 0 mm 0.0 W/m2
17:54 5.2 °C 1.5 °C 1006 hPa South 18.2 km/h 27 km/h 77% 0 mm 0.0 W/m2
17:59 5 °C 1.5 °C 1006 hPa South 10.9 km/h 14.8 km/h 78% 0 mm 0.0 W/m2
18:04 4.9 °C 1.4 °C 1006 hPa SSW 7.6 km/h 9.3 km/h 78% 0 mm 0.0 W/m2
18:09 4.9 °C 1.4 °C 1006 hPa SSW 15.4 km/h 19.3 km/h 78% 0 mm 0.0 W/m2
18:14 4.8 °C 1.3 °C 1006 hPa SSW 9.8 km/h 14.8 km/h 78% 0 mm 0.0 W/m2
18:19 4.8 °C 1.4 °C 1006.7 hPa SW 10.5 km/h 11.1 km/h 79% 0 mm 0.0 W/m2
18:24 4.6 °C 1.4 °C 1006.7 hPa South 16.4 km/h 20.4 km/h 80% 0 mm 0.0 W/m2
18:29 4.5 °C 1.3 °C 1006.7 hPa SSW 11.9 km/h 17.4 km/h 80% 0 mm 0.0 W/m2
18:35 4.4 °C 1.3 °C 1006.7 hPa SSW 9 km/h 11.1 km/h 80% 0 mm 0.0 W/m2
18:40 4.3 °C 1.3 °C 1006.7 hPa SSW 10.1 km/h 13.5 km/h 81% 0 mm 0.0 W/m2
18:45 4.3 °C 1.3 °C 1006.7 hPa SSW 10.5 km/h 13 km/h 81% 0 mm 0.0 W/m2
18:50 4.3 °C 1.3 °C 1006.3 hPa SSE 13.2 km/h 19.3 km/h 81% 0 mm 0.0 W/m2
18:55 4.2 °C 1.4 °C 1006.3 hPa South 17.2 km/h 24.1 km/h 82% 0 mm 0.0 W/m2
19:00 4.2 °C 1.4 °C 1006.3 hPa South 15.8 km/h 18.5 km/h 82% 0 mm 0.0 W/m2
19:05 4.3 °C 1.5 °C 1006 hPa SSW 12.6 km/h 18.5 km/h 82% 0 mm 0.0 W/m2
19:10 4.2 °C 1.6 °C 1006 hPa SSW 10.8 km/h 14.8 km/h 83% 0 mm 0.0 W/m2
19:15 4.2 °C 1.6 °C 1005.6 hPa SSW 18.7 km/h 25.9 km/h 83% 0 mm 0.0 W/m2
19:21 4.1 °C 1.5 °C 1005.6 hPa SSE 15.6 km/h 19.3 km/h 83% 0 mm 0.0 W/m2
19:26 4.2 °C 1.6 °C 1005.6 hPa SSW 21.9 km/h 31.5 km/h 83% 0 mm 0.0 W/m2
19:31 4.2 °C 1.7 °C 1005.6 hPa South 24.9 km/h 35.2 km/h 84% 0 mm 0.0 W/m2
19:36 4.1 °C 1.7 °C 1005.6 hPa SSE 17.1 km/h 24.1 km/h 84% 0 mm 0.0 W/m2
19:41 4.1 °C 1.7 °C 1005.6 hPa SSW 13.5 km/h 19.3 km/h 84% 0 mm 0.0 W/m2
19:46 4.1 °C 1.6 °C 1005.6 hPa SSW 20.1 km/h 24.1 km/h 84% 0 mm 0.0 W/m2
19:51 4.1 °C 1.7 °C 1006 hPa SSW 17.4 km/h 18.5 km/h 84% 0 mm 0.0 W/m2
19:56 4.1 °C 1.8 °C 1005.6 hPa SW 17.5 km/h 25.1 km/h 85% 0 mm 0.0 W/m2
20:01 3.9 °C 1.7 °C 1005.6 hPa South 14.5 km/h 16.7 km/h 85% 0 mm 0.0 W/m2
20:06 3.9 °C 1.6 °C 1005.6 hPa South 16.1 km/h 20.4 km/h 85% 0 mm 0.0 W/m2
20:11 3.9 °C 1.8 °C 1005.6 hPa SSW 19 km/h 27.8 km/h 86% 0 mm 0.0 W/m2
20:16 3.9 °C 1.8 °C 1005.6 hPa SSW 16.1 km/h 25.9 km/h 86% 0 mm 0.0 W/m2
20:21 3.8 °C 1.7 °C 1005.6 hPa SSW 13.5 km/h 25.1 km/h 86% 0 mm 0.0 W/m2
20:26 3.9 °C 1.8 °C 1005.6 hPa SSW 21.7 km/h 25.1 km/h 86% 0 mm 0.0 W/m2
20:31 3.9 °C 1.9 °C 1005.6 hPa SSW 17.1 km/h 31.5 km/h 87% 0 mm 0.0 W/m2
20:36 3.8 °C 1.8 °C 1005.6 hPa South 23.2 km/h 23.2 km/h 87% 0 mm 0.0 W/m2
20:42 3.8 °C 1.8 °C 1005.6 hPa SSW 16.6 km/h 24.1 km/h 87% 0 mm 0.0 W/m2
20:47 3.7 °C 1.9 °C 1006 hPa SSW 16.1 km/h 19.3 km/h 88% 0 mm 0.0 W/m2
20:52 3.7 °C 1.9 °C 1006 hPa SSW 12.9 km/h 24.1 km/h 88% 0 mm 0.0 W/m2
20:57 3.6 °C 1.8 °C 1006 hPa SSW 14 km/h 17.4 km/h 88% 0 mm 0.0 W/m2
21:02 3.6 °C 1.8 °C 1005.6 hPa SSW 12.4 km/h 12.4 km/h 88% 0 mm 0.0 W/m2
21:07 3.6 °C 1.9 °C 1005.6 hPa SSW 14.5 km/h 17.7 km/h 89% 0 mm 0.0 W/m2
21:12 3.7 °C 1.9 °C 1005.6 hPa SSW 18.7 km/h 24.1 km/h 88% 0 mm 0.0 W/m2
21:17 3.7 °C 1.9 °C 1005.6 hPa South 21.6 km/h 24.1 km/h 88% 0 mm 0.0 W/m2
21:22 3.7 °C 1.9 °C 1005.3 hPa South 17.9 km/h 20.4 km/h 88% 0 mm 0.0 W/m2
21:31 3.7 °C 1.9 °C 1005.3 hPa SW 11.7 km/h 14.8 km/h 88% 0 mm 0.0 W/m2
21:36 3.7 °C 2.1 °C 1005.3 hPa SSW 21.1 km/h 35.2 km/h 89% 0 mm 0.0 W/m2
21:41 3.7 °C 2.1 °C 1005.3 hPa SSW 16.1 km/h 16.7 km/h 89% 0 mm 0.0 W/m2
21:46 3.7 °C 2.1 °C 1005.3 hPa South 17.4 km/h 20.4 km/h 89% 0 mm 0.0 W/m2
21:51 3.7 °C 2.1 °C 1005.3 hPa South 18.3 km/h 19.3 km/h 89% 0 mm 0.0 W/m2
21:56 3.7 °C 2 °C 1005.3 hPa South 14 km/h 16.7 km/h 89% 0 mm 0.0 W/m2
22:01 3.7 °C 2.2 °C 1005.3 hPa South 21.2 km/h 25.9 km/h 90% 0 mm 0.0 W/m2
22:06 3.5 °C 2 °C 1005.3 hPa SSW 12.2 km/h 20.4 km/h 90% 0 mm 0.0 W/m2
22:11 3.7 °C 2.2 °C 1005 hPa SSW 24 km/h 29.6 km/h 90% 0 mm 0.0 W/m2
22:17 3.6 °C 2.1 °C 1005 hPa SSW 13.8 km/h 16.7 km/h 90% 0 mm 0.0 W/m2
22:22 3.3 °C 1.8 °C 1005 hPa South 10.9 km/h 14.8 km/h 90% 0 mm 0.0 W/m2
22:27 3.4 °C 1.9 °C 1005.3 hPa SSW 16.6 km/h 20.4 km/h 90% 0 mm 0.0 W/m2
22:32 3.4 °C 2.1 °C 1005.3 hPa SSW 14.6 km/h 16.7 km/h 91% 0 mm 0.0 W/m2
22:37 3.4 °C 2.1 °C 1005.3 hPa SW 9 km/h 11.1 km/h 91% 0 mm 0.0 W/m2
22:42 3.5 °C 2.2 °C 1005.3 hPa SW 9.5 km/h 9.7 km/h 91% 0 mm 0.0 W/m2
22:47 3.4 °C 1.9 °C 1005.3 hPa SSW 8.2 km/h 11.6 km/h 90% 0 mm 0.0 W/m2
22:52 3.5 °C 2.2 °C 1005.3 hPa SSW 7.9 km/h 9.7 km/h 91% 0 mm 0.0 W/m2
22:57 3.4 °C 2.1 °C 1005.3 hPa SSW 10.9 km/h 13.5 km/h 91% 0 mm 0.0 W/m2
23:02 3.3 °C 1.9 °C 1005.3 hPa South 9.3 km/h 11.6 km/h 91% 0 mm 0.0 W/m2
23:07 3.4 °C 2.1 °C 1005 hPa WSW 12.1 km/h 14.8 km/h 91% 0 mm 0.0 W/m2
23:12 3.3 °C 2 °C 1005 hPa South 3.9 km/h 9.3 km/h 91% 0 mm 0.0 W/m2
23:17 3.2 °C 1.9 °C 1005 hPa SW 9.5 km/h 9.5 km/h 91% 0 mm 0.0 W/m2
23:22 3.3 °C 1.9 °C 1005 hPa SSW 5.8 km/h 9.3 km/h 91% 0 mm 0.0 W/m2
23:27 3.2 °C 1.8 °C 1005 hPa SSW 1.3 km/h 3.9 km/h 91% 0 mm 0.0 W/m2
23:32 3.2 °C 1.9 °C 1005.3 hPa WSW 3.7 km/h 13 km/h 91% 0 mm 0.0 W/m2
23:38 3.2 °C 1.8 °C 1005.3 hPa WSW 1.6 km/h 1.9 km/h 91% 0 mm 0.0 W/m2
23:43 3.2 °C 1.8 °C 1005.3 hPa SW 9.3 km/h 11.6 km/h 91% 0 mm 0.0 W/m2
23:48 3.2 °C 1.9 °C 1005 hPa SSW 14.8 km/h 16.7 km/h 91% 0 mm 0.0 W/m2
23:53 3.2 °C 1.9 °C 1005 hPa SSW 12.4 km/h 15.4 km/h 91% 0 mm 0.0 W/m2
23:58 3.2 °C 1.9 °C 1005 hPa SSW 14.2 km/h 19.3 km/h 91% 0 mm 0.0 W/m2
Soleil - Laurel Canyon
Compliments of Weather Underground - 3.25 mb